sensor_id;sensor_type;location;lat;lon;timestamp;pressure;altitude;pressure_sealevel;temperature;humidity
41690;BME280;27372;42.658;23.256;2023-03-18T00:01:32;94148.66;;;0.03;86.74
41690;BME280;27372;42.658;23.256;2023-03-18T00:03:58;94144.44;;;0.27;86.98
41690;BME280;27372;42.658;23.256;2023-03-18T00:06:24;94156.31;;;0.69;84.83
41690;BME280;27372;42.658;23.256;2023-03-18T00:08:49;94147.50;;;0.95;83.29
41690;BME280;27372;42.658;23.256;2023-03-18T00:11:17;94137.94;;;1.04;83.03
41690;BME280;27372;42.658;23.256;2023-03-18T00:13:43;94143.66;;;0.83;83.84
41690;BME280;27372;42.658;23.256;2023-03-18T00:16:10;94133.88;;;1.10;82.93
41690;BME280;27372;42.658;23.256;2023-03-18T00:18:36;94124.81;;;1.05;82.30
41690;BME280;27372;42.658;23.256;2023-03-18T00:21:05;94132.13;;;1.33;81.35
41690;BME280;27372;42.658;23.256;2023-03-18T00:23:34;94123.63;;;1.48;80.25
41690;BME280;27372;42.658;23.256;2023-03-18T00:26:01;94124.09;;;1.75;79.30
41690;BME280;27372;42.658;23.256;2023-03-18T00:28:27;94125.56;;;1.77;78.51
41690;BME280;27372;42.658;23.256;2023-03-18T00:30:53;94117.59;;;1.79;78.21
41690;BME280;27372;42.658;23.256;2023-03-18T00:33:21;94121.91;;;1.86;77.48
41690;BME280;27372;42.658;23.256;2023-03-18T00:35:47;94128.41;;;1.82;78.30
41690;BME280;27372;42.658;23.256;2023-03-18T00:38:13;94122.94;;;1.54;79.25
41690;BME280;27372;42.658;23.256;2023-03-18T00:40:49;94106.28;;;1.25;81.02
41690;BME280;27372;42.658;23.256;2023-03-18T00:43:26;94106.66;;;1.14;82.00
41690;BME280;27372;42.658;23.256;2023-03-18T00:45:55;94095.69;;;1.12;82.03
41690;BME280;27372;42.658;23.256;2023-03-18T00:48:21;94098.09;;;1.13;81.42
41690;BME280;27372;42.658;23.256;2023-03-18T00:50:48;94091.34;;;1.35;81.10
41690;BME280;27372;42.658;23.256;2023-03-18T00:53:13;94097.22;;;1.76;79.49
41690;BME280;27372;42.658;23.256;2023-03-18T00:55:40;94095.22;;;2.01;77.89
41690;BME280;27372;42.658;23.256;2023-03-18T00:58:06;94098.00;;;1.99;77.63
41690;BME280;27372;42.658;23.256;2023-03-18T01:00:33;94094.19;;;2.10;77.00
41690;BME280;27372;42.658;23.256;2023-03-18T01:03:00;94087.94;;;2.20;76.90
41690;BME280;27372;42.658;23.256;2023-03-18T01:05:26;94085.53;;;1.80;77.17
41690;BME280;27372;42.658;23.256;2023-03-18T01:07:51;94092.03;;;1.76;77.90
41690;BME280;27372;42.658;23.256;2023-03-18T01:10:18;94076.69;;;1.74;77.77
41690;BME280;27372;42.658;23.256;2023-03-18T01:12:44;94085.44;;;1.27;79.89
41690;BME280;27372;42.658;23.256;2023-03-18T01:15:15;94073.78;;;0.99;81.24
41690;BME280;27372;42.658;23.256;2023-03-18T01:17:42;94080.09;;;0.57;83.95
41690;BME280;27372;42.658;23.256;2023-03-18T01:20:09;94073.22;;;1.12;81.89
41690;BME280;27372;42.658;23.256;2023-03-18T01:22:36;94075.09;;;1.18;81.37
41690;BME280;27372;42.658;23.256;2023-03-18T01:25:01;94077.22;;;1.46;80.49
41690;BME280;27372;42.658;23.256;2023-03-18T01:27:43;94070.81;;;1.11;81.76
41690;BME280;27372;42.658;23.256;2023-03-18T01:30:09;94064.88;;;0.62;83.39
41690;BME280;27372;42.658;23.256;2023-03-18T01:32:35;94079.16;;;0.41;85.40
41690;BME280;27372;42.658;23.256;2023-03-18T01:35:02;94070.81;;;0.23;86.83
41690;BME280;27372;42.658;23.256;2023-03-18T01:37:34;94072.44;;;0.15;87.24
41690;BME280;27372;42.658;23.256;2023-03-18T01:40:00;94058.06;;;0.69;85.26
41690;BME280;27372;42.658;23.256;2023-03-18T01:42:25;94062.31;;;0.54;85.54
41690;BME280;27372;42.658;23.256;2023-03-18T01:45:12;94059.59;;;0.87;84.49
41690;BME280;27372;42.658;23.256;2023-03-18T01:47:44;94066.53;;;1.18;82.24
41690;BME280;27372;42.658;23.256;2023-03-18T01:50:12;94059.03;;;1.31;81.16
41690;BME280;27372;42.658;23.256;2023-03-18T01:52:38;94066.50;;;1.49;80.06
41690;BME280;27372;42.658;23.256;2023-03-18T01:55:07;94061.09;;;1.59;78.70
41690;BME280;27372;42.658;23.256;2023-03-18T01:57:36;94063.97;;;1.41;78.96
41690;BME280;27372;42.658;23.256;2023-03-18T02:00:04;94061.72;;;1.61;78.24
41690;BME280;27372;42.658;23.256;2023-03-18T02:02:31;94063.72;;;1.74;77.91
41690;BME280;27372;42.658;23.256;2023-03-18T02:05:00;94061.59;;;1.78;77.79
41690;BME280;27372;42.658;23.256;2023-03-18T02:07:50;94060.44;;;1.80;77.81
41690;BME280;27372;42.658;23.256;2023-03-18T02:10:26;94063.53;;;1.76;77.72
41690;BME280;27372;42.658;23.256;2023-03-18T02:13:04;94061.09;;;1.59;78.55
41690;BME280;27372;42.658;23.256;2023-03-18T02:15:31;94057.53;;;1.37;79.72
41690;BME280;27372;42.658;23.256;2023-03-18T02:18:08;94046.38;;;1.13;81.02
41690;BME280;27372;42.658;23.256;2023-03-18T02:20:55;94055.78;;;1.06;81.52
41690;BME280;27372;42.658;23.256;2023-03-18T02:23:49;94051.72;;;0.80;82.09
41690;BME280;27372;42.658;23.256;2023-03-18T02:28:49;94052.34;;;0.42;85.60
41690;BME280;27372;42.658;23.256;2023-03-18T02:31:17;94042.19;;;0.72;84.85
41690;BME280;27372;42.658;23.256;2023-03-18T02:33:43;94041.78;;;0.92;83.55
41690;BME280;27372;42.658;23.256;2023-03-18T02:36:16;94052.31;;;1.14;83.24
41690;BME280;27372;42.658;23.256;2023-03-18T02:38:44;94043.25;;;1.18;82.18
41690;BME280;27372;42.658;23.256;2023-03-18T02:41:16;94046.69;;;1.33;82.02
41690;BME280;27372;42.658;23.256;2023-03-18T02:43:42;94038.66;;;1.51;80.63
41690;BME280;27372;42.658;23.256;2023-03-18T02:48:41;94057.16;;;1.63;79.11
41690;BME280;27372;42.658;23.256;2023-03-18T02:51:08;94043.72;;;1.45;78.56
41690;BME280;27372;42.658;23.256;2023-03-18T02:53:35;94039.97;;;1.24;79.73
41690;BME280;27372;42.658;23.256;2023-03-18T02:56:01;94043.53;;;1.23;79.67
41690;BME280;27372;42.658;23.256;2023-03-18T02:58:27;94043.25;;;1.41;79.46
41690;BME280;27372;42.658;23.256;2023-03-18T03:00:52;94045.63;;;1.51;78.62
41690;BME280;27372;42.658;23.256;2023-03-18T03:03:19;94046.44;;;1.28;79.73
41690;BME280;27372;42.658;23.256;2023-03-18T03:05:45;94044.47;;;1.30;79.70
41690;BME280;27372;42.658;23.256;2023-03-18T03:08:30;94061.97;;;1.28;79.98
41690;BME280;27372;42.658;23.256;2023-03-18T03:10:55;94046.50;;;1.20;80.58
41690;BME280;27372;42.658;23.256;2023-03-18T03:13:21;94037.97;;;1.34;79.62
41690;BME280;27372;42.658;23.256;2023-03-18T03:15:47;94036.00;;;1.36;79.58
41690;BME280;27372;42.658;23.256;2023-03-18T03:18:18;94048.69;;;1.54;79.17
41690;BME280;27372;42.658;23.256;2023-03-18T03:20:45;94043.16;;;1.58;78.34
41690;BME280;27372;42.658;23.256;2023-03-18T03:23:13;94046.75;;;1.48;78.63
41690;BME280;27372;42.658;23.256;2023-03-18T03:25:39;94059.19;;;1.53;79.20
41690;BME280;27372;42.658;23.256;2023-03-18T03:28:06;94056.19;;;1.41;78.96
41690;BME280;27372;42.658;23.256;2023-03-18T03:30:33;94044.88;;;1.42;78.38
41690;BME280;27372;42.658;23.256;2023-03-18T03:33:00;94052.97;;;1.39;78.02
41690;BME280;27372;42.658;23.256;2023-03-18T03:35:27;94060.22;;;1.20;78.98
41690;BME280;27372;42.658;23.256;2023-03-18T03:37:52;94054.78;;;1.07;80.10
41690;BME280;27372;42.658;23.256;2023-03-18T03:40:19;94054.66;;;0.69;81.56
41690;BME280;27372;42.658;23.256;2023-03-18T03:42:48;94051.31;;;0.52;82.54
41690;BME280;27372;42.658;23.256;2023-03-18T03:45:18;94061.56;;;0.45;83.91
41690;BME280;27372;42.658;23.256;2023-03-18T03:47:47;94067.22;;;0.32;84.67
41690;BME280;27372;42.658;23.256;2023-03-18T03:50:13;94071.13;;;0.28;85.70
41690;BME280;27372;42.658;23.256;2023-03-18T03:52:39;94065.97;;;0.11;87.07
41690;BME280;27372;42.658;23.256;2023-03-18T03:55:10;94057.28;;;0.04;88.27
41690;BME280;27372;42.658;23.256;2023-03-18T03:57:36;94062.31;;;-0.19;90.48
41690;BME280;27372;42.658;23.256;2023-03-18T04:00:08;94070.06;;;-0.44;91.73
41690;BME280;27372;42.658;23.256;2023-03-18T04:02:37;94071.84;;;-0.44;92.65
41690;BME280;27372;42.658;23.256;2023-03-18T04:05:03;94067.34;;;-0.42;93.21
41690;BME280;27372;42.658;23.256;2023-03-18T04:07:37;94060.25;;;-0.32;93.14
41690;BME280;27372;42.658;23.256;2023-03-18T04:10:03;94079.25;;;-0.50;93.26
41690;BME280;27372;42.658;23.256;2023-03-18T04:12:31;94066.38;;;-0.41;92.43
41690;BME280;27372;42.658;23.256;2023-03-18T04:15:03;94076.69;;;-0.41;92.52
41690;BME280;27372;42.658;23.256;2023-03-18T04:17:50;94080.38;;;-0.11;91.52
41690;BME280;27372;42.658;23.256;2023-03-18T04:20:19;94077.78;;;0.14;89.75
41690;BME280;27372;42.658;23.256;2023-03-18T04:22:45;94089.56;;;0.17;88.58
41690;BME280;27372;42.658;23.256;2023-03-18T04:25:11;94080.50;;;0.12;88.07
41690;BME280;27372;42.658;23.256;2023-03-18T04:27:39;94086.31;;;0.23;87.53
41690;BME280;27372;42.658;23.256;2023-03-18T04:30:08;94094.00;;;0.48;86.48
41690;BME280;27372;42.658;23.256;2023-03-18T04:32:34;94098.53;;;0.45;85.78
41690;BME280;27372;42.658;23.256;2023-03-18T04:34:59;94097.84;;;0.52;85.15
41690;BME280;27372;42.658;23.256;2023-03-18T04:37:25;94097.72;;;0.53;83.92
41690;BME280;27372;42.658;23.256;2023-03-18T04:39:51;94103.66;;;0.54;83.53
41690;BME280;27372;42.658;23.256;2023-03-18T04:42:16;94107.56;;;0.58;83.06
41690;BME280;27372;42.658;23.256;2023-03-18T04:44:42;94112.72;;;0.58;83.25
41690;BME280;27372;42.658;23.256;2023-03-18T04:47:08;94107.19;;;0.69;82.27
41690;BME280;27372;42.658;23.256;2023-03-18T04:49:33;94122.31;;;0.33;83.04
41690;BME280;27372;42.658;23.256;2023-03-18T04:51:59;94110.56;;;-0.11;85.01
41690;BME280;27372;42.658;23.256;2023-03-18T04:54:26;94110.91;;;-0.23;86.92
41690;BME280;27372;42.658;23.256;2023-03-18T04:56:52;94111.81;;;0.34;84.57
41690;BME280;27372;42.658;23.256;2023-03-18T04:59:18;94109.41;;;0.24;84.94
41690;BME280;27372;42.658;23.256;2023-03-18T05:01:43;94110.19;;;0.33;85.13
41690;BME280;27372;42.658;23.256;2023-03-18T05:04:09;94115.97;;;0.43;84.87
41690;BME280;27372;42.658;23.256;2023-03-18T05:06:36;94120.75;;;0.71;84.29
41690;BME280;27372;42.658;23.256;2023-03-18T05:09:02;94117.59;;;0.92;82.94
41690;BME280;27372;42.658;23.256;2023-03-18T05:11:29;94115.53;;;0.88;82.59
41690;BME280;27372;42.658;23.256;2023-03-18T05:13:55;94117.75;;;0.99;82.57
41690;BME280;27372;42.658;23.256;2023-03-18T05:16:21;94114.88;;;1.26;81.65
41690;BME280;27372;42.658;23.256;2023-03-18T05:18:47;94120.25;;;1.16;81.87
41690;BME280;27372;42.658;23.256;2023-03-18T05:21:13;94116.25;;;1.36;81.51
41690;BME280;27372;42.658;23.256;2023-03-18T05:23:38;94113.28;;;1.48;80.91
41690;BME280;27372;42.658;23.256;2023-03-18T05:26:10;94099.03;;;1.52;80.91
41690;BME280;27372;42.658;23.256;2023-03-18T05:28:36;94105.97;;;1.75;79.78
41690;BME280;27372;42.658;23.256;2023-03-18T05:31:03;94110.00;;;1.77;79.72
41690;BME280;27372;42.658;23.256;2023-03-18T05:33:29;94114.66;;;1.82;79.75
41690;BME280;27372;42.658;23.256;2023-03-18T05:35:54;94099.69;;;1.92;79.81
41690;BME280;27372;42.658;23.256;2023-03-18T05:38:21;94103.69;;;1.57;80.37
41690;BME280;27372;42.658;23.256;2023-03-18T05:40:46;94116.25;;;0.65;84.18
41690;BME280;27372;42.658;23.256;2023-03-18T05:43:14;94108.09;;;0.85;84.68
41690;BME280;27372;42.658;23.256;2023-03-18T05:45:40;94102.22;;;0.51;85.63
41690;BME280;27372;42.658;23.256;2023-03-18T05:48:06;94110.13;;;0.98;85.35
41690;BME280;27372;42.658;23.256;2023-03-18T05:50:40;94109.00;;;1.32;84.57
41690;BME280;27372;42.658;23.256;2023-03-18T05:53:06;94103.69;;;1.57;83.74
41690;BME280;27372;42.658;23.256;2023-03-18T05:55:33;94124.53;;;1.78;83.23
41690;BME280;27372;42.658;23.256;2023-03-18T05:58:00;94112.38;;;2.02;82.18
41690;BME280;27372;42.658;23.256;2023-03-18T06:00:27;94127.44;;;2.22;80.86
41690;BME280;27372;42.658;23.256;2023-03-18T06:02:54;94129.38;;;2.43;79.52
41690;BME280;27372;42.658;23.256;2023-03-18T06:05:21;94131.78;;;2.59;79.54
41690;BME280;27372;42.658;23.256;2023-03-18T06:07:47;94145.66;;;2.67;78.99
41690;BME280;27372;42.658;23.256;2023-03-18T06:10:13;94146.38;;;2.60;78.50
41690;BME280;27372;42.658;23.256;2023-03-18T06:12:39;94146.34;;;2.45;78.93
41690;BME280;27372;42.658;23.256;2023-03-18T06:15:10;94151.56;;;2.60;78.61
41690;BME280;27372;42.658;23.256;2023-03-18T06:17:36;94154.94;;;2.61;78.57
41690;BME280;27372;42.658;23.256;2023-03-18T06:20:07;94150.56;;;2.46;78.69
41690;BME280;27372;42.658;23.256;2023-03-18T06:22:33;94156.00;;;2.37;79.90
41690;BME280;27372;42.658;23.256;2023-03-18T06:24:59;94142.59;;;2.48;80.06
41690;BME280;27372;42.658;23.256;2023-03-18T06:27:25;94153.34;;;2.75;79.14
41690;BME280;27372;42.658;23.256;2023-03-18T06:29:51;94155.16;;;2.74;78.56
41690;BME280;27372;42.658;23.256;2023-03-18T06:32:16;94138.50;;;2.69;78.54
41690;BME280;27372;42.658;23.256;2023-03-18T06:34:42;94140.84;;;2.93;77.75
41690;BME280;27372;42.658;23.256;2023-03-18T06:37:07;94133.22;;;2.92;77.46
41690;BME280;27372;42.658;23.256;2023-03-18T06:39:34;94121.56;;;3.18;77.17
41690;BME280;27372;42.658;23.256;2023-03-18T06:41:59;94108.09;;;3.44;75.39
41690;BME280;27372;42.658;23.256;2023-03-18T06:44:25;94114.69;;;3.47;75.19
41690;BME280;27372;42.658;23.256;2023-03-18T06:46:51;94110.81;;;3.21;75.03
41690;BME280;27372;42.658;23.256;2023-03-18T06:49:18;94109.44;;;3.40;75.14
41690;BME280;27372;42.658;23.256;2023-03-18T06:51:43;94102.53;;;2.95;76.31
41690;BME280;27372;42.658;23.256;2023-03-18T06:54:09;94104.38;;;3.17;76.07
41690;BME280;27372;42.658;23.256;2023-03-18T06:56:37;94111.06;;;3.63;74.69
41690;BME280;27372;42.658;23.256;2023-03-18T06:59:04;94105.75;;;3.71;73.67
41690;BME280;27372;42.658;23.256;2023-03-18T07:01:30;94114.84;;;3.82;72.70
41690;BME280;27372;42.658;23.256;2023-03-18T07:03:57;94118.75;;;3.93;72.75
41690;BME280;27372;42.658;23.256;2023-03-18T07:06:25;94119.78;;;3.98;72.33
41690;BME280;27372;42.658;23.256;2023-03-18T07:08:50;94114.59;;;3.77;73.12
41690;BME280;27372;42.658;23.256;2023-03-18T07:11:17;94116.28;;;3.84;72.69
41690;BME280;27372;42.658;23.256;2023-03-18T07:13:43;94116.47;;;3.61;73.13
41690;BME280;27372;42.658;23.256;2023-03-18T07:16:08;94113.13;;;3.89;73.28
41690;BME280;27372;42.658;23.256;2023-03-18T07:18:34;94118.72;;;4.43;71.54
41690;BME280;27372;42.658;23.256;2023-03-18T07:21:01;94117.00;;;4.50;70.46
41690;BME280;27372;42.658;23.256;2023-03-18T07:23:26;94113.41;;;4.51;71.12
41690;BME280;27372;42.658;23.256;2023-03-18T07:25:52;94118.34;;;4.46;71.06
41690;BME280;27372;42.658;23.256;2023-03-18T07:28:19;94113.44;;;4.58;70.99
41690;BME280;27372;42.658;23.256;2023-03-18T07:30:46;94111.91;;;4.70;69.91
41690;BME280;27372;42.658;23.256;2023-03-18T07:33:12;94106.31;;;4.73;70.53
41690;BME280;27372;42.658;23.256;2023-03-18T07:35:38;94124.78;;;4.85;70.12
41690;BME280;27372;42.658;23.256;2023-03-18T07:38:06;94128.13;;;4.72;70.00
41690;BME280;27372;42.658;23.256;2023-03-18T07:40:32;94119.72;;;4.70;70.16
41690;BME280;27372;42.658;23.256;2023-03-18T07:42:58;94119.72;;;4.70;70.36
41690;BME280;27372;42.658;23.256;2023-03-18T07:45:23;94129.41;;;4.90;69.46
41690;BME280;27372;42.658;23.256;2023-03-18T07:47:49;94129.88;;;5.00;69.30
41690;BME280;27372;42.658;23.256;2023-03-18T07:50:16;94122.88;;;4.65;69.97
41690;BME280;27372;42.658;23.256;2023-03-18T07:52:52;94137.81;;;5.27;69.47
41690;BME280;27372;42.658;23.256;2023-03-18T07:55:18;94124.81;;;5.27;68.62
41690;BME280;27372;42.658;23.256;2023-03-18T07:57:44;94133.25;;;5.42;67.74
41690;BME280;27372;42.658;23.256;2023-03-18T08:00:10;94125.34;;;5.91;66.66
41690;BME280;27372;42.658;23.256;2023-03-18T08:02:37;94139.47;;;6.24;65.56
41690;BME280;27372;42.658;23.256;2023-03-18T08:05:03;94132.44;;;6.24;63.74
41690;BME280;27372;42.658;23.256;2023-03-18T08:07:31;94131.03;;;6.48;63.23
41690;BME280;27372;42.658;23.256;2023-03-18T08:09:57;94129.44;;;6.67;62.34
41690;BME280;27372;42.658;23.256;2023-03-18T08:12:24;94125.44;;;6.58;62.76
41690;BME280;27372;42.658;23.256;2023-03-18T08:14:49;94137.59;;;6.98;61.17
41690;BME280;27372;42.658;23.256;2023-03-18T08:17:15;94112.53;;;6.83;61.56
41690;BME280;27372;42.658;23.256;2023-03-18T08:19:41;94110.56;;;6.65;62.00
41690;BME280;27372;42.658;23.256;2023-03-18T08:22:07;94109.06;;;7.10;61.13
41690;BME280;27372;42.658;23.256;2023-03-18T08:24:32;94111.38;;;6.52;61.79
41690;BME280;27372;42.658;23.256;2023-03-18T08:26:58;94113.06;;;7.06;61.63
41690;BME280;27372;42.658;23.256;2023-03-18T08:29:23;94114.66;;;7.59;59.65
41690;BME280;27372;42.658;23.256;2023-03-18T08:31:51;94119.94;;;7.52;59.04
41690;BME280;27372;42.658;23.256;2023-03-18T08:34:16;94137.75;;;7.69;60.11
41690;BME280;27372;42.658;23.256;2023-03-18T08:36:43;94131.66;;;7.75;58.67
41690;BME280;27372;42.658;23.256;2023-03-18T08:39:09;94135.25;;;7.81;58.88
41690;BME280;27372;42.658;23.256;2023-03-18T08:41:37;94132.31;;;8.02;58.11
41690;BME280;27372;42.658;23.256;2023-03-18T08:44:06;94121.75;;;8.48;54.96
41690;BME280;27372;42.658;23.256;2023-03-18T08:46:34;94114.28;;;8.51;55.10
41690;BME280;27372;42.658;23.256;2023-03-18T08:49:01;94134.34;;;8.58;56.07
41690;BME280;27372;42.658;23.256;2023-03-18T08:51:27;94135.41;;;8.75;53.66
41690;BME280;27372;42.658;23.256;2023-03-18T08:53:53;94136.59;;;8.98;54.03
41690;BME280;27372;42.658;23.256;2023-03-18T08:56:19;94135.88;;;9.28;52.73
41690;BME280;27372;42.658;23.256;2023-03-18T08:58:44;94138.50;;;9.46;51.69
41690;BME280;27372;42.658;23.256;2023-03-18T09:01:10;94128.81;;;9.77;51.75
41690;BME280;27372;42.658;23.256;2023-03-18T09:03:37;94130.44;;;10.21;49.91
41690;BME280;27372;42.658;23.256;2023-03-18T09:06:02;94136.22;;;9.69;51.68
41690;BME280;27372;42.658;23.256;2023-03-18T09:08:29;94127.81;;;10.21;48.80
41690;BME280;27372;42.658;23.256;2023-03-18T09:10:55;94128.50;;;10.47;48.79
41690;BME280;27372;42.658;23.256;2023-03-18T09:13:22;94126.88;;;10.69;48.17
41690;BME280;27372;42.658;23.256;2023-03-18T09:15:48;94126.00;;;11.52;45.71
41690;BME280;27372;42.658;23.256;2023-03-18T09:18:15;94131.84;;;11.83;44.67
41690;BME280;27372;42.658;23.256;2023-03-18T09:20:42;94124.69;;;12.24;44.58
41690;BME280;27372;42.658;23.256;2023-03-18T09:23:10;94132.00;;;12.51;41.90
41690;BME280;27372;42.658;23.256;2023-03-18T09:25:37;94131.41;;;12.32;41.68
41690;BME280;27372;42.658;23.256;2023-03-18T09:28:03;94126.81;;;12.73;41.41
41690;BME280;27372;42.658;23.256;2023-03-18T09:30:28;94138.00;;;13.03;40.46
41690;BME280;27372;42.658;23.256;2023-03-18T09:32:54;94128.31;;;12.86;40.12
41690;BME280;27372;42.658;23.256;2023-03-18T09:35:20;94134.69;;;13.30;38.17
41690;BME280;27372;42.658;23.256;2023-03-18T09:37:46;94126.19;;;13.23;37.44
41690;BME280;27372;42.658;23.256;2023-03-18T09:40:35;94134.97;;;13.50;36.95
41690;BME280;27372;42.658;23.256;2023-03-18T09:51:56;94127.13;;;12.77;35.40
41690;BME280;27372;42.658;23.256;2023-03-18T09:56:56;94110.88;;;13.25;35.74
41690;BME280;27372;42.658;23.256;2023-03-18T09:59:31;94115.41;;;13.07;36.17
41690;BME280;27372;42.658;23.256;2023-03-18T10:02:03;94123.56;;;13.67;35.63
41690;BME280;27372;42.658;23.256;2023-03-18T10:04:41;94114.28;;;14.14;34.00
41690;BME280;27372;42.658;23.256;2023-03-18T10:07:13;94109.34;;;14.88;33.75
41690;BME280;27372;42.658;23.256;2023-03-18T10:09:49;94109.47;;;15.09;33.13
41690;BME280;27372;42.658;23.256;2023-03-18T10:12:31;94119.63;;;14.52;33.26
41690;BME280;27372;42.658;23.256;2023-03-18T10:17:53;94111.50;;;14.58;32.97
41690;BME280;27372;42.658;23.256;2023-03-18T10:25:51;94124.34;;;14.44;32.91
41690;BME280;27372;42.658;23.256;2023-03-18T10:28:37;94122.84;;;13.99;33.05
41690;BME280;27372;42.658;23.256;2023-03-18T10:33:56;94118.25;;;13.23;33.66
41690;BME280;27372;42.658;23.256;2023-03-18T10:38:54;94113.59;;;14.24;31.46
41690;BME280;27372;42.658;23.256;2023-03-18T10:41:34;94114.25;;;14.41;30.33
41690;BME280;27372;42.658;23.256;2023-03-18T10:44:09;94110.66;;;14.53;29.24
41690;BME280;27372;42.658;23.256;2023-03-18T10:46:39;94104.25;;;15.93;26.51
41690;BME280;27372;42.658;23.256;2023-03-18T10:49:17;94104.84;;;17.14;27.11
41690;BME280;27372;42.658;23.256;2023-03-18T10:52:02;94114.94;;;17.12;26.52
41690;BME280;27372;42.658;23.256;2023-03-18T10:54:40;94100.28;;;15.90;28.73
41690;BME280;27372;42.658;23.256;2023-03-18T10:57:12;94105.13;;;16.35;29.48
41690;BME280;27372;42.658;23.256;2023-03-18T10:59:38;94096.78;;;15.11;29.57
41690;BME280;27372;42.658;23.256;2023-03-18T11:04:49;94090.97;;;13.78;30.50
41690;BME280;27372;42.658;23.256;2023-03-18T11:07:21;94100.84;;;13.66;30.79
41690;BME280;27372;42.658;23.256;2023-03-18T11:09:51;94094.97;;;13.36;31.81
41690;BME280;27372;42.658;23.256;2023-03-18T11:12:24;94083.09;;;13.84;30.65
41690;BME280;27372;42.658;23.256;2023-03-18T11:14:51;94093.66;;;13.84;29.84
41690;BME280;27372;42.658;23.256;2023-03-18T11:17:36;94108.09;;;13.14;30.82
41690;BME280;27372;42.658;23.256;2023-03-18T11:20:04;94096.53;;;11.38;36.46
41690;BME280;27372;42.658;23.256;2023-03-18T11:22:32;94095.66;;;10.14;39.52
41690;BME280;27372;42.658;23.256;2023-03-18T11:25:13;94099.53;;;9.31;41.53
41690;BME280;27372;42.658;23.256;2023-03-18T11:27:45;94113.63;;;9.19;41.78
41690;BME280;27372;42.658;23.256;2023-03-18T11:33:02;94103.84;;;8.89;41.16
41690;BME280;27372;42.658;23.256;2023-03-18T11:35:35;94109.22;;;9.50;47.37
41690;BME280;27372;42.658;23.256;2023-03-18T11:38:11;94098.84;;;10.16;40.37
41690;BME280;27372;42.658;23.256;2023-03-18T11:40:41;94091.91;;;11.57;37.00
41690;BME280;27372;42.658;23.256;2023-03-18T11:43:23;94094.53;;;13.23;34.31
41690;BME280;27372;42.658;23.256;2023-03-18T11:45:56;94070.78;;;14.22;31.50
41690;BME280;27372;42.658;23.256;2023-03-18T11:48:39;94086.13;;;14.95;29.99
41690;BME280;27372;42.658;23.256;2023-03-18T11:59:30;94099.66;;;13.12;31.09
41690;BME280;27372;42.658;23.256;2023-03-18T12:13:11;94099.03;;;11.45;33.64
41690;BME280;27372;42.658;23.256;2023-03-18T12:19:07;94095.50;;;12.09;33.04
41690;BME280;27372;42.658;23.256;2023-03-18T12:27:02;94081.00;;;11.37;34.15
41690;BME280;27372;42.658;23.256;2023-03-18T12:33:00;94100.84;;;10.68;34.53
41690;BME280;27372;42.658;23.256;2023-03-18T12:35:39;94096.38;;;11.16;34.47
41690;BME280;27372;42.658;23.256;2023-03-18T12:41:22;94079.66;;;14.10;30.59
41690;BME280;27372;42.658;23.256;2023-03-18T12:44:26;94073.03;;;15.26;27.94
41690;BME280;27372;42.658;23.256;2023-03-18T12:46:51;94072.53;;;16.50;27.59
41690;BME280;27372;42.658;23.256;2023-03-18T12:49:24;94071.81;;;14.91;27.64
41690;BME280;27372;42.658;23.256;2023-03-18T12:52:04;94081.44;;;13.33;29.24
41690;BME280;27372;42.658;23.256;2023-03-18T12:54:37;94073.16;;;13.96;29.22
41690;BME280;27372;42.658;23.256;2023-03-18T12:57:14;94078.19;;;14.95;28.05
41690;BME280;27372;42.658;23.256;2023-03-18T12:59:47;94082.34;;;14.86;28.20
41690;BME280;27372;42.658;23.256;2023-03-18T13:05:03;94067.22;;;16.81;25.07
41690;BME280;27372;42.658;23.256;2023-03-18T13:07:39;94085.53;;;17.74;25.15
41690;BME280;27372;42.658;23.256;2023-03-18T13:10:23;94077.97;;;17.31;25.38
41690;BME280;27372;42.658;23.256;2023-03-18T13:12:52;94074.78;;;15.68;26.47
41690;BME280;27372;42.658;23.256;2023-03-18T13:15:39;94081.44;;;15.13;27.19
41690;BME280;27372;42.658;23.256;2023-03-18T13:18:38;94074.25;;;14.27;28.61
41690;BME280;27372;42.658;23.256;2023-03-18T13:21:07;94077.66;;;14.23;28.81
41690;BME280;27372;42.658;23.256;2023-03-18T13:24:03;94094.56;;;14.92;27.50
41690;BME280;27372;42.658;23.256;2023-03-18T13:35:37;94081.78;;;17.04;24.98
41690;BME280;27372;42.658;23.256;2023-03-18T13:43:25;94072.28;;;16.36;25.27
41690;BME280;27372;42.658;23.256;2023-03-18T13:45:54;94071.69;;;15.24;26.92
41690;BME280;27372;42.658;23.256;2023-03-18T13:48:29;94080.41;;;15.14;26.41
41690;BME280;27372;42.658;23.256;2023-03-18T13:51:12;94080.09;;;15.05;26.86
41690;BME280;27372;42.658;23.256;2023-03-18T13:53:41;94072.75;;;15.17;26.91
41690;BME280;27372;42.658;23.256;2023-03-18T13:56:46;94083.47;;;14.25;27.82
41690;BME280;27372;42.658;23.256;2023-03-18T14:04:48;94056.84;;;15.91;26.24
41690;BME280;27372;42.658;23.256;2023-03-18T14:07:21;94055.53;;;16.97;25.57
41690;BME280;27372;42.658;23.256;2023-03-18T14:10:14;94058.16;;;16.92;24.89
41690;BME280;27372;42.658;23.256;2023-03-18T14:12:43;94055.81;;;16.28;24.64
41690;BME280;27372;42.658;23.256;2023-03-18T14:17:55;94054.75;;;15.93;25.30
41690;BME280;27372;42.658;23.256;2023-03-18T14:20:38;94062.22;;;16.48;25.44
41690;BME280;27372;42.658;23.256;2023-03-18T14:23:27;94047.88;;;16.44;24.15
41690;BME280;27372;42.658;23.256;2023-03-18T14:26:22;94074.75;;;17.44;23.09
41690;BME280;27372;42.658;23.256;2023-03-18T14:29:07;94055.56;;;16.71;24.58
41690;BME280;27372;42.658;23.256;2023-03-18T14:39:19;94060.66;;;19.27;21.97
41690;BME280;27372;42.658;23.256;2023-03-18T14:41:51;94041.78;;;19.91;20.80
41690;BME280;27372;42.658;23.256;2023-03-18T14:44:45;94062.81;;;20.12;20.47
41690;BME280;27372;42.658;23.256;2023-03-18T14:47:21;94051.09;;;19.69;21.34
41690;BME280;27372;42.658;23.256;2023-03-18T14:49:53;94064.09;;;19.95;20.76
41690;BME280;27372;42.658;23.256;2023-03-18T14:52:29;94062.69;;;19.35;20.35
41690;BME280;27372;42.658;23.256;2023-03-18T14:55:00;94069.75;;;19.69;20.86